Terminal Aerodrome Forecast
Issued by NWS Sioux Falls, SD

Home | Current Version | Previous Version | Text Only | Print | Product List | Glossary On
Versions: 1 2 3 4 5 6 7 8 9 10 11 12 13 14 15 16 17 18 19 20 21 22 23 24 25 26 27 28 29 30 31 32
000
FTUS43 KFSD 281722
TAFSUX
TAF
KSUX 281722Z 2818/2918 26012KT P6SM SCT120
     FM282200 29009KT P6SM FEW250
     FM290200 VRB04KT P6SM FEW250
     FM291100 10004KT P6SM BKN130
     FM291500 11008KT P6SM BKN100=

USA.gov is the U.S. government's official web portal to all federal, state and local government web resources and services.